Time;durP1;ratioP1;P1;durP2;ratioP2;P2;SDS_P1;SDS_P2;PMS_P1;PMS_P2;Temp;Humidity;BMP_temperature;BMP_pressure;BME280_temperature;BME280_humidity;BME280_pressure;Samples;Min_cycle;Max_cycle;Signal;HPM_P1;HPM_P2
2022/12/11 00:01:46;;;;;;;;;;;-1.70;99.90;;;;;;5047783;28;19979;-79
2022/12/11 00:04:12;;;;;;;;;;;-1.00;99.90;;;;;;5028216;28;19921;-80
2022/12/11 00:06:37;;;;;;;;;;;-0.80;99.90;;;;;;5053093;28;19927;-79
2022/12/11 00:09:03;;;;;;;;;;;-1.70;99.90;;;;;;5039450;28;19921;-79
2022/12/11 00:11:28;;;;;;;;;;;-1.00;99.90;;;;;;5049898;28;19928;-79
2022/12/11 00:13:54;;;;;;;;;;;-1.70;99.90;;;;;;5036834;28;20475;-79
2022/12/11 00:16:19;;;;;;;;;;;-0.80;99.90;;;;;;5031796;28;20343;-79
2022/12/11 00:18:45;;;;;;;;;;;-1.70;99.90;;;;;;5021598;28;19926;-79
2022/12/11 00:21:13;;;;;;;;;;;-1.70;99.90;;;;;;5049756;28;20290;-79
2022/12/11 00:23:39;;;;;;;;;;;-0.50;99.90;;;;;;5053083;28;19925;-79
2022/12/11 00:26:09;;;;;;;;;;;-1.60;99.90;;;;;;5036315;28;19925;-79
2022/12/11 00:28:35;;;;;;;;;;;-1.60;99.90;;;;;;5054085;28;20015;-79
2022/12/11 00:31:04;;;;;;;;;;;-1.60;99.90;;;;;;5052713;28;20008;-79
2022/12/11 00:33:30;;;;;;;;;;;-1.50;99.90;;;;;;5035913;28;19924;-79
2022/12/11 00:35:55;;;;;;;;;;;0.60;99.90;;;;;;5052293;28;19936;-79
2022/12/11 00:38:21;;;;;;;;;;;-0.40;99.90;;;;;;5048499;28;19927;-79
2022/12/11 00:40:47;;;;;;;;;;;-1.50;99.90;;;;;;5037251;28;19929;-79
2022/12/11 00:43:13;;;;;;;;;;;-0.90;99.90;;;;;;5052265;28;19943;-79
2022/12/11 00:45:40;;;;;;;;;;;-1.40;99.90;;;;;;5052111;28;20386;-79
2022/12/11 00:48:06;;;;;;;;;;;0.20;99.90;;;;;;5055440;28;20421;-79
2022/12/11 00:50:32;;;;;;;;;;;-1.40;99.90;;;;;;5024301;28;20023;-80
2022/12/11 00:52:57;;;;;;;;;;;-1.40;99.90;;;;;;5053478;28;20015;-78
2022/12/11 00:55:24;;;;;;;;;;;-0.40;99.90;;;;;;5055172;28;19959;-80
2022/12/11 00:57:53;;;;;;;;;;;-1.40;99.90;;;;;;5037306;28;19999;-79
2022/12/11 01:00:19;;;;;;;;;;;-1.30;99.90;;;;;;5056534;28;19929;-80
2022/12/11 01:02:44;;;;;;;;;;;-1.30;99.90;;;;;;5057171;28;19928;-79
2022/12/11 01:05:10;;;;;;;;;;;-1.30;99.90;;;;;;5035430;28;19978;-79
2022/12/11 01:07:35;;;;;;;;;;;-1.30;99.90;;;;;;5036861;28;19921;-80
2022/12/11 01:12:45;;;;;;;;;;;-0.70;99.90;;;;;;5050733;28;20015;-79
2022/12/11 01:15:11;;;;;;;;;;;-0.10;99.90;;;;;;5037691;28;19933;-79
2022/12/11 01:17:36;;;;;;;;;;;-1.20;99.90;;;;;;5028521;28;19931;-79
2022/12/11 01:20:03;;;;;;;;;;;-1.20;99.90;;;;;;5054922;28;19971;-79
2022/12/11 01:22:29;;;;;;;;;;;-1.10;99.90;;;;;;5052713;28;20014;-79
2022/12/11 01:24:54;;;;;;;;;;;-1.20;99.90;;;;;;5046325;28;20050;-79
2022/12/11 01:27:20;;;;;;;;;;;-0.10;99.90;;;;;;5052064;28;19924;-79
2022/12/11 01:29:45;;;;;;;;;;;-1.20;99.90;;;;;;5033247;28;20445;-79
2022/12/11 01:32:11;;;;;;;;;;;-1.20;99.90;;;;;;5037795;28;19973;-79
2022/12/11 01:34:37;;;;;;;;;;;-1.20;99.90;;;;;;5016439;28;19929;-79
2022/12/11 01:37:02;;;;;;;;;;;-1.20;99.90;;;;;;5050425;28;19920;-80
2022/12/11 01:39:28;;;;;;;;;;;-1.10;99.90;;;;;;5038486;28;19925;-79
2022/12/11 01:41:57;;;;;;;;;;;-1.20;99.90;;;;;;5052558;28;20317;-79
2022/12/11 01:44:22;;;;;;;;;;;-1.10;99.90;;;;;;5037305;28;20134;-79
2022/12/11 01:46:48;;;;;;;;;;;-0.60;99.90;;;;;;5052480;28;20419;-79
2022/12/11 01:49:15;;;;;;;;;;;-1.10;99.90;;;;;;5031199;28;19921;-79
2022/12/11 01:51:47;;;;;;;;;;;-1.10;99.90;;;;;;5041281;28;20015;-79
2022/12/11 01:54:13;;;;;;;;;;;-1.10;99.90;;;;;;5059573;28;19924;-79
2022/12/11 01:56:40;;;;;;;;;;;0.20;99.90;;;;;;5036265;28;20008;-79
2022/12/11 01:59:08;;;;;;;;;;;-1.10;99.90;;;;;;5053386;28;19920;-79
2022/12/11 02:01:42;;;;;;;;;;;-1.10;99.90;;;;;;5037857;28;19929;-79
2022/12/11 02:04:08;;;;;;;;;;;-1.10;99.90;;;;;;5049135;28;19928;-79
2022/12/11 02:06:41;;;;;;;;;;;0.10;99.90;;;;;;5037256;28;19920;-79
2022/12/11 02:09:09;;;;;;;;;;;-1.00;99.90;;;;;;5032270;28;20078;-78
2022/12/11 02:11:40;;;;;;;;;;;-1.00;99.90;;;;;;5032359;28;19921;-79
2022/12/11 02:14:18;;;;;;;;;;;1.00;99.90;;;;;;5050043;28;20692;-79
2022/12/11 02:16:57;;;;;;;;;;;-1.00;99.90;;;;;;5045795;28;19928;-79
2022/12/11 02:19:42;;;;;;;;;;;-1.00;99.90;;;;;;5034184;28;20323;-79
2022/12/11 02:22:10;;;;;;;;;;;-1.00;99.90;;;;;;5052989;28;19921;-79
2022/12/11 02:24:51;;;;;;;;;;;-0.70;99.90;;;;;;5028956;28;19935;-79
2022/12/11 02:27:39;;;;;;;;;;;-1.00;99.90;;;;;;5039345;28;19933;-79
2022/12/11 02:30:06;;;;;;;;;;;-1.00;99.90;;;;;;5051377;28;19920;-79
2022/12/11 02:32:34;;;;;;;;;;;-0.90;99.90;;;;;;5031865;28;19928;-79
2022/12/11 02:35:03;;;;;;;;;;;-1.00;99.90;;;;;;5044381;28;19947;-79
2022/12/11 02:37:30;;;;;;;;;;;-1.00;99.90;;;;;;5052778;28;19975;-79
2022/12/11 02:39:56;;;;;;;;;;;0.50;99.90;;;;;;5047057;28;19979;-79
2022/12/11 02:42:23;;;;;;;;;;;-0.90;99.90;;;;;;5035489;28;19964;-80
2022/12/11 02:44:49;;;;;;;;;;;-0.40;99.90;;;;;;5045018;28;19928;-79
2022/12/11 02:47:17;;;;;;;;;;;-1.00;99.90;;;;;;5048724;28;20279;-79
2022/12/11 02:49:44;;;;;;;;;;;-0.50;99.90;;;;;;5052227;28;19929;-79
2022/12/11 02:52:11;;;;;;;;;;;-0.90;99.90;;;;;;5033459;28;19959;-79
2022/12/11 02:54:38;;;;;;;;;;;-0.90;99.90;;;;;;5039159;28;19928;-79
2022/12/11 02:57:03;;;;;;;;;;;0.10;99.90;;;;;;5045485;28;20003;-79
2022/12/11 02:59:33;;;;;;;;;;;-0.90;99.90;;;;;;5038291;28;19984;-79
2022/12/11 03:01:59;;;;;;;;;;;-0.90;99.90;;;;;;5058179;28;19920;-79
2022/12/11 03:04:24;;;;;;;;;;;-0.90;99.90;;;;;;5034125;28;19929;-79
2022/12/11 03:06:52;;;;;;;;;;;-0.90;99.90;;;;;;5035038;28;19935;-79
2022/12/11 03:09:18;;;;;;;;;;;-0.90;99.90;;;;;;5037830;28;19921;-80
2022/12/11 03:11:43;;;;;;;;;;;-0.90;99.90;;;;;;5036103;28;19921;-79
2022/12/11 03:14:10;;;;;;;;;;;-0.40;99.90;;;;;;5033020;28;19925;-79
2022/12/11 03:16:37;;;;;;;;;;;-0.90;99.90;;;;;;5053997;28;20020;-78
2022/12/11 03:19:18;;;;;;;;;;;-0.90;99.90;;;;;;5036109;28;20408;-79
2022/12/11 03:21:47;;;;;;;;;;;-0.90;99.90;;;;;;5051309;28;19939;-79
2022/12/11 03:24:21;;;;;;;;;;;-0.80;99.90;;;;;;5029060;28;20384;-79
2022/12/11 03:26:53;;;;;;;;;;;-0.80;99.90;;;;;;5048507;28;19928;-79
2022/12/11 03:29:22;;;;;;;;;;;-0.80;99.90;;;;;;5033481;28;19921;-79
2022/12/11 03:31:55;;;;;;;;;;;-0.80;99.90;;;;;;5049692;28;20377;-79
2022/12/11 03:34:30;;;;;;;;;;;-0.80;99.90;;;;;;5050628;28;20348;-79
2022/12/11 03:36:56;;;;;;;;;;;-0.80;99.90;;;;;;5033031;28;20024;-79
2022/12/11 03:39:28;;;;;;;;;;;-0.80;99.90;;;;;;5051978;28;20004;-80
2022/12/11 03:41:54;;;;;;;;;;;-0.80;99.90;;;;;;5054882;28;20258;-79
2022/12/11 03:44:20;;;;;;;;;;;-0.80;99.90;;;;;;5052528;28;19921;-79
2022/12/11 03:46:47;;;;;;;;;;;-0.80;99.90;;;;;;5051154;28;19987;-79
2022/12/11 03:49:18;;;;;;;;;;;-0.80;99.90;;;;;;5019529;28;20336;-79
2022/12/11 03:51:45;;;;;;;;;;;-0.80;99.90;;;;;;5042432;28;19929;-79
2022/12/11 03:54:11;;;;;;;;;;;-0.20;99.90;;;;;;5054316;28;20155;-80
2022/12/11 03:56:38;;;;;;;;;;;-0.80;99.90;;;;;;5039242;28;19978;-79
2022/12/11 03:59:04;;;;;;;;;;;-0.80;99.90;;;;;;5042166;28;19960;-79
2022/12/11 04:01:29;;;;;;;;;;;-0.70;99.90;;;;;;5045903;28;20554;-79
2022/12/11 04:03:55;;;;;;;;;;;-0.70;99.90;;;;;;5027912;28;19921;-80
2022/12/11 04:06:20;;;;;;;;;;;-0.40;99.90;;;;;;5034719;28;20024;-79
2022/12/11 04:08:46;;;;;;;;;;;-0.70;99.90;;;;;;5038613;28;20303;-79
2022/12/11 04:16:40;;;;;;;;;;;-0.70;99.90;;;;;;5052842;28;19928;-79
2022/12/11 04:24:34;;;;;;;;;;;-0.70;99.90;;;;;;5037012;28;19968;-79
2022/12/11 04:27:00;;;;;;;;;;;0.20;99.90;;;;;;5020637;28;19929;-79
2022/12/11 04:29:25;;;;;;;;;;;-0.70;99.90;;;;;;5020510;28;19963;-79
2022/12/11 04:31:51;;;;;;;;;;;-0.70;99.90;;;;;;5037244;28;19924;-79
2022/12/11 04:34:16;;;;;;;;;;;-0.70;99.90;;;;;;5035732;28;19976;-79
2022/12/11 04:36:42;;;;;;;;;;;-0.70;99.90;;;;;;5029192;28;19968;-79
2022/12/11 04:39:07;;;;;;;;;;;-0.70;99.90;;;;;;5020929;28;19920;-79
2022/12/11 04:41:33;;;;;;;;;;;0.10;99.90;;;;;;5061927;28;19920;-79
2022/12/11 04:43:59;;;;;;;;;;;-0.50;99.90;;;;;;5054128;28;19963;-79
2022/12/11 04:46:25;;;;;;;;;;;-0.70;99.90;;;;;;5050148;28;19971;-79
2022/12/11 04:48:51;;;;;;;;;;;-0.50;99.90;;;;;;5052599;28;20322;-79
2022/12/11 04:51:17;;;;;;;;;;;-0.30;99.90;;;;;;5047714;28;20278;-80
2022/12/11 04:53:43;;;;;;;;;;;-0.70;99.90;;;;;;5039531;28;20295;-79
2022/12/11 04:56:10;;;;;;;;;;;-0.60;99.90;;;;;;5038337;28;19963;-79
2022/12/11 04:58:36;;;;;;;;;;;-0.20;99.90;;;;;;5053962;28;19921;-80
2022/12/11 05:01:15;;;;;;;;;;;-0.70;99.90;;;;;;5050207;28;19925;-79
2022/12/11 05:03:41;;;;;;;;;;;-0.60;99.90;;;;;;5067256;28;19921;-80
2022/12/11 05:06:07;;;;;;;;;;;-0.60;99.90;;;;;;5031796;28;19990;-79
2022/12/11 05:08:34;;;;;;;;;;;-0.60;99.90;;;;;;5036435;28;19971;-79
2022/12/11 05:11:00;;;;;;;;;;;0.10;99.90;;;;;;5037691;28;19955;-79
2022/12/11 05:13:27;;;;;;;;;;;-0.60;99.90;;;;;;5036953;28;19925;-79
2022/12/11 05:15:53;;;;;;;;;;;1.00;99.90;;;;;;5039945;28;19929;-79
2022/12/11 05:18:18;;;;;;;;;;;-0.70;99.90;;;;;;5053511;28;19921;-79
2022/12/11 05:20:44;;;;;;;;;;;-0.50;99.90;;;;;;5037761;28;19933;-80
2022/12/11 05:23:10;;;;;;;;;;;-0.70;99.90;;;;;;5038441;28;19948;-80
2022/12/11 05:25:35;;;;;;;;;;;-0.70;99.90;;;;;;5037677;28;19920;-79
2022/12/11 05:28:01;;;;;;;;;;;-0.60;99.90;;;;;;5047974;28;19980;-79
2022/12/11 05:30:26;;;;;;;;;;;-0.60;99.90;;;;;;5038057;28;20385;-79
2022/12/11 05:32:52;;;;;;;;;;;-0.60;99.90;;;;;;5024047;28;19960;-79
2022/12/11 05:35:17;;;;;;;;;;;-0.10;99.90;;;;;;5053737;28;19928;-79
2022/12/11 05:37:43;;;;;;;;;;;-0.60;99.90;;;;;;5036446;28;19927;-79
2022/12/11 05:40:11;;;;;;;;;;;-0.20;99.90;;;;;;5022993;28;20377;-79
2022/12/11 05:42:37;;;;;;;;;;;-0.60;99.90;;;;;;5036810;28;19925;-79
2022/12/11 05:45:03;;;;;;;;;;;-0.60;99.90;;;;;;5040164;28;19995;-79
2022/12/11 05:47:29;;;;;;;;;;;-0.60;99.90;;;;;;5038339;28;19928;-79
2022/12/11 05:49:55;;;;;;;;;;;-0.60;99.90;;;;;;5020012;28;19976;-79
2022/12/11 05:52:21;;;;;;;;;;;-0.60;99.90;;;;;;5022930;28;20384;-80
2022/12/11 05:54:47;;;;;;;;;;;-0.60;99.90;;;;;;5055295;28;19928;-79
2022/12/11 05:57:13;;;;;;;;;;;-0.60;99.90;;;;;;5061677;28;20386;-79
2022/12/11 05:59:38;;;;;;;;;;;-0.60;99.90;;;;;;5050655;28;19935;-79
2022/12/11 06:02:04;;;;;;;;;;;-0.60;99.90;;;;;;5042691;28;19920;-79
2022/12/11 06:04:29;;;;;;;;;;;-0.60;99.90;;;;;;5033254;28;20063;-79
2022/12/11 06:06:55;;;;;;;;;;;-0.60;99.90;;;;;;5036309;28;19932;-79
2022/12/11 06:09:20;;;;;;;;;;;-0.60;99.90;;;;;;5019076;28;19950;-80
2022/12/11 06:11:46;;;;;;;;;;;-0.60;99.90;;;;;;5036911;28;19925;-79
2022/12/11 06:14:12;;;;;;;;;;;1.30;99.90;;;;;;5032489;28;19987;-79
2022/12/11 06:16:38;;;;;;;;;;;-0.60;99.90;;;;;;5041370;28;19927;-79
2022/12/11 06:19:03;;;;;;;;;;;0.50;99.90;;;;;;5026147;28;19921;-79
2022/12/11 06:21:30;;;;;;;;;;;-0.60;99.90;;;;;;5032372;28;19924;-79
2022/12/11 06:23:57;;;;;;;;;;;0.60;99.90;;;;;;5054824;28;19920;-79
2022/12/11 06:26:23;;;;;;;;;;;0.20;99.90;;;;;;5039372;28;19940;-79
2022/12/11 06:28:49;;;;;;;;;;;-0.60;99.90;;;;;;5050427;28;19975;-79
2022/12/11 06:31:15;;;;;;;;;;;0.00;99.90;;;;;;5018960;28;19973;-79
2022/12/11 06:33:40;;;;;;;;;;;0.30;99.90;;;;;;5040817;28;19925;-79
2022/12/11 06:36:10;;;;;;;;;;;-0.60;99.90;;;;;;5048370;28;19932;-79
2022/12/11 06:38:36;;;;;;;;;;;-0.60;99.90;;;;;;5043396;28;19925;-79
2022/12/11 06:41:05;;;;;;;;;;;-0.60;99.90;;;;;;5037568;28;19925;-80
2022/12/11 06:43:32;;;;;;;;;;;-0.60;99.90;;;;;;5049234;28;19921;-79
2022/12/11 06:45:58;;;;;;;;;;;0.30;99.90;;;;;;5049264;28;19995;-80
2022/12/11 06:48:24;;;;;;;;;;;-0.60;99.90;;;;;;5030668;28;20386;-79
2022/12/11 06:50:49;;;;;;;;;;;-0.60;99.90;;;;;;5047654;28;19928;-79
2022/12/11 06:53:15;;;;;;;;;;;-0.60;99.90;;;;;;5050832;28;19925;-79
2022/12/11 06:55:41;;;;;;;;;;;-0.60;99.90;;;;;;5035281;28;19921;-80
2022/12/11 06:58:07;;;;;;;;;;;-0.60;99.90;;;;;;5052305;28;19929;-79
2022/12/11 07:00:34;;;;;;;;;;;-0.40;99.90;;;;;;5057927;28;19925;-79
2022/12/11 07:03:00;;;;;;;;;;;-0.50;99.90;;;;;;5036138;28;19921;-79
2022/12/11 07:05:25;;;;;;;;;;;-0.60;99.90;;;;;;5056319;28;19928;-79
2022/12/11 07:07:52;;;;;;;;;;;-0.60;99.90;;;;;;5035506;28;19920;-79
2022/12/11 07:10:17;;;;;;;;;;;-0.60;99.90;;;;;;5036296;28;19924;-79
2022/12/11 07:12:43;;;;;;;;;;;-0.60;99.90;;;;;;5030699;28;20396;-79
2022/12/11 07:15:09;;;;;;;;;;;-0.60;99.90;;;;;;5057238;28;19939;-79
2022/12/11 07:17:34;;;;;;;;;;;-0.60;99.90;;;;;;5055976;28;20195;-79
2022/12/11 07:20:00;;;;;;;;;;;-0.60;99.90;;;;;;5044571;28;19928;-79
2022/12/11 07:22:27;;;;;;;;;;;0.20;99.90;;;;;;5023933;28;19986;-79
2022/12/11 07:24:52;;;;;;;;;;;-0.60;99.90;;;;;;5062035;28;19932;-79
2022/12/11 07:27:18;;;;;;;;;;;0.30;99.90;;;;;;5076643;28;19920;-79
2022/12/11 07:29:44;;;;;;;;;;;-0.60;99.90;;;;;;5076535;28;19912;-79
2022/12/11 07:32:09;;;;;;;;;;;-0.60;99.90;;;;;;5062988;28;19909;-79
2022/12/11 07:34:35;;;;;;;;;;;-0.60;99.90;;;;;;5078864;28;19929;-79
2022/12/11 07:37:00;;;;;;;;;;;-0.60;99.90;;;;;;5063931;28;19925;-78
2022/12/11 07:39:26;;;;;;;;;;;0.10;99.90;;;;;;5052408;28;19932;-79
2022/12/11 07:41:52;;;;;;;;;;;-0.60;99.90;;;;;;5048294;28;19944;-78
2022/12/11 07:44:18;;;;;;;;;;;-0.60;99.90;;;;;;5031843;28;19942;-77
2022/12/11 07:46:43;;;;;;;;;;;0.30;99.90;;;;;;5053559;28;19921;-79
2022/12/11 07:49:09;;;;;;;;;;;0.50;99.90;;;;;;5035001;28;20388;-79
2022/12/11 07:51:35;;;;;;;;;;;-0.60;99.90;;;;;;5049099;28;20003;-79
2022/12/11 07:54:03;;;;;;;;;;;1.30;99.90;;;;;;5052654;28;19933;-78
2022/12/11 07:56:29;;;;;;;;;;;-0.60;99.90;;;;;;5035344;28;19921;-78
2022/12/11 07:58:55;;;;;;;;;;;-0.50;99.90;;;;;;5033055;28;20289;-79
2022/12/11 08:01:22;;;;;;;;;;;0.00;99.90;;;;;;5048746;28;19921;-79
2022/12/11 08:03:49;;;;;;;;;;;0.40;99.90;;;;;;5044960;28;20350;-79
2022/12/11 08:06:15;;;;;;;;;;;-0.60;99.90;;;;;;5044444;28;19956;-79
2022/12/11 08:08:41;;;;;;;;;;;-0.50;99.90;;;;;;5031429;28;19967;-79
2022/12/11 08:11:08;;;;;;;;;;;-0.50;99.90;;;;;;5053103;28;19927;-78
2022/12/11 08:13:34;;;;;;;;;;;-0.50;99.90;;;;;;5035754;28;19929;-78
2022/12/11 08:16:04;;;;;;;;;;;-0.50;99.90;;;;;;5051056;28;19935;-78
2022/12/11 08:18:30;;;;;;;;;;;-0.50;99.90;;;;;;5051664;28;19952;-78
2022/12/11 08:20:55;;;;;;;;;;;-0.50;99.90;;;;;;5053938;28;20386;-78
2022/12/11 08:23:21;;;;;;;;;;;-0.50;99.90;;;;;;5038839;28;19951;-79
2022/12/11 08:25:46;;;;;;;;;;;0.00;99.90;;;;;;5038201;28;19931;-78
2022/12/11 08:28:12;;;;;;;;;;;-0.50;99.90;;;;;;5060836;28;19935;-79
2022/12/11 08:30:38;;;;;;;;;;;-0.60;99.90;;;;;;5025173;28;19921;-79
2022/12/11 08:33:04;;;;;;;;;;;-0.60;99.90;;;;;;5060715;28;19942;-79
2022/12/11 08:35:30;;;;;;;;;;;-0.60;99.90;;;;;;5037506;28;20031;-79
2022/12/11 08:37:55;;;;;;;;;;;-0.60;99.90;;;;;;5057580;28;19920;-79
2022/12/11 08:40:21;;;;;;;;;;;-0.60;99.90;;;;;;5058754;28;20032;-79
2022/12/11 08:42:46;;;;;;;;;;;0.10;99.90;;;;;;5040589;28;19935;-78
2022/12/11 08:45:12;;;;;;;;;;;-0.10;99.90;;;;;;5049060;28;20310;-78
2022/12/11 08:47:37;;;;;;;;;;;0.50;99.90;;;;;;5054179;28;19928;-79
2022/12/11 08:50:03;;;;;;;;;;;-0.50;99.90;;;;;;5039424;28;20404;-79
2022/12/11 08:52:30;;;;;;;;;;;-0.50;99.90;;;;;;5054192;28;20285;-79
2022/12/11 08:54:57;;;;;;;;;;;-0.50;99.90;;;;;;5049802;28;19924;-78
2022/12/11 08:57:22;;;;;;;;;;;-0.50;99.90;;;;;;5063261;28;20377;-79
2022/12/11 08:59:48;;;;;;;;;;;-0.50;99.90;;;;;;5044229;28;20041;-79
2022/12/11 09:02:13;;;;;;;;;;;-0.50;99.90;;;;;;5060421;28;19921;-79
2022/12/11 09:04:39;;;;;;;;;;;0.10;99.90;;;;;;5033442;28;19921;-80
2022/12/11 09:07:05;;;;;;;;;;;-0.50;99.90;;;;;;5030038;28;19920;-79
2022/12/11 09:09:30;;;;;;;;;;;-0.30;99.90;;;;;;5020899;28;19928;-79
2022/12/11 09:11:56;;;;;;;;;;;-0.50;99.90;;;;;;5042283;28;20435;-78
2022/12/11 09:14:21;;;;;;;;;;;-0.40;99.90;;;;;;5041939;28;19924;-77
2022/12/11 09:16:47;;;;;;;;;;;-0.40;99.90;;;;;;5053709;28;19974;-78
2022/12/11 09:19:13;;;;;;;;;;;-0.30;99.90;;;;;;5042300;28;19927;-78
2022/12/11 09:21:39;;;;;;;;;;;-0.40;99.90;;;;;;5051365;28;21745;-78
2022/12/11 09:24:05;;;;;;;;;;;-0.40;99.90;;;;;;5059418;28;20019;-79
2022/12/11 09:26:31;;;;;;;;;;;-0.40;99.90;;;;;;5034252;28;20080;-82
2022/12/11 09:28:57;;;;;;;;;;;-0.30;99.90;;;;;;5011808;28;20282;-82
2022/12/11 09:31:24;;;;;;;;;;;0.40;99.90;;;;;;5042885;28;19929;-81
2022/12/11 09:33:52;;;;;;;;;;;-0.40;99.90;;;;;;5037982;28;20469;-81
2022/12/11 09:36:18;;;;;;;;;;;-0.30;99.90;;;;;;5022939;28;19920;-81
2022/12/11 09:38:44;;;;;;;;;;;-0.30;99.90;;;;;;5041293;28;20564;-81
2022/12/11 09:41:21;;;;;;;;;;;0.10;99.90;;;;;;5026022;28;19968;-81
2022/12/11 09:43:50;;;;;;;;;;;-0.40;99.90;;;;;;5048720;28;19925;-81
2022/12/11 09:46:16;;;;;;;;;;;-0.40;99.90;;;;;;5057770;28;19920;-80
2022/12/11 09:48:43;;;;;;;;;;;-0.40;99.90;;;;;;5036711;28;19920;-81
2022/12/11 09:51:18;;;;;;;;;;;-0.40;99.90;;;;;;5040855;28;19928;-81
2022/12/11 09:53:44;;;;;;;;;;;-0.30;99.90;;;;;;5048169;28;20023;-81
2022/12/11 09:56:16;;;;;;;;;;;-0.30;99.90;;;;;;5052603;28;20360;-83
2022/12/11 09:58:53;;;;;;;;;;;-0.30;99.90;;;;;;5053288;28;19920;-78
2022/12/11 10:01:30;;;;;;;;;;;-0.30;99.90;;;;;;5052786;28;20391;-79
2022/12/11 10:04:02;;;;;;;;;;;-0.30;99.90;;;;;;5042037;28;19965;-78
2022/12/11 10:06:34;;;;;;;;;;;-0.30;99.90;;;;;;5059799;28;19996;-79
2022/12/11 10:09:04;;;;;;;;;;;-0.30;99.90;;;;;;5054970;28;19928;-78
2022/12/11 10:11:33;;;;;;;;;;;-0.30;99.90;;;;;;5060524;28;19925;-79
2022/12/11 10:13:58;;;;;;;;;;;-0.30;99.90;;;;;;5039944;28;20325;-79
2022/12/11 10:16:36;;;;;;;;;;;0.90;99.90;;;;;;5039554;28;19928;-79
2022/12/11 10:19:02;;;;;;;;;;;-0.20;99.90;;;;;;5051983;28;19972;-78
2022/12/11 10:21:33;;;;;;;;;;;-0.20;99.90;;;;;;5054125;28;19963;-77
2022/12/11 10:24:00;;;;;;;;;;;-0.30;99.90;;;;;;5051203;28;19925;-77
2022/12/11 10:26:27;;;;;;;;;;;-0.20;99.90;;;;;;5036365;28;19925;-76
2022/12/11 10:28:53;;;;;;;;;;;-0.30;99.90;;;;;;5055838;28;19971;-75
2022/12/11 10:31:23;;;;;;;;;;;0.70;99.90;;;;;;5024272;28;19920;-76
2022/12/11 10:33:51;;;;;;;;;;;-0.20;99.90;;;;;;5034993;28;19925;-76
2022/12/11 10:36:19;;;;;;;;;;;-0.20;99.90;;;;;;5032928;28;19931;-76
2022/12/11 10:38:45;;;;;;;;;;;-0.20;99.90;;;;;;5044297;28;20082;-77
2022/12/11 10:41:19;;;;;;;;;;;-0.20;99.90;;;;;;5047254;28;19978;-77
2022/12/11 10:43:46;;;;;;;;;;;-0.30;99.90;;;;;;5053934;28;20007;-76
2022/12/11 10:46:22;;;;;;;;;;;-0.20;99.90;;;;;;5050644;28;19928;-76
2022/12/11 10:48:52;;;;;;;;;;;-0.20;99.90;;;;;;5048009;28;19920;-76
2022/12/11 10:51:19;;;;;;;;;;;-0.20;99.90;;;;;;5050353;28;19967;-76
2022/12/11 10:53:49;;;;;;;;;;;-0.30;99.90;;;;;;5048790;28;20007;-76
2022/12/11 10:56:14;;;;;;;;;;;-0.20;99.90;;;;;;5035730;28;20022;-76
2022/12/11 10:58:47;;;;;;;;;;;0.20;99.90;;;;;;5032892;28;19987;-75
2022/12/11 11:01:14;;;;;;;;;;;-0.20;99.90;;;;;;5048463;28;20034;-77
2022/12/11 11:03:52;;;;;;;;;;;-0.20;99.90;;;;;;5033416;28;19920;-76
2022/12/11 11:06:18;;;;;;;;;;;-0.10;99.90;;;;;;5048967;28;19978;-75
2022/12/11 11:08:46;;;;;;;;;;;-0.10;99.90;;;;;;5052162;28;20385;-76
2022/12/11 11:11:31;;;;;;;;;;;-0.10;99.90;;;;;;5049042;28;20017;-75
2022/12/11 11:14:26;;;;;;;;;;;-0.20;99.90;;;;;;5048844;28;19929;-75
2022/12/11 11:16:54;;;;;;;;;;;-0.10;99.90;;;;;;5032721;28;19931;-75
2022/12/11 11:19:30;;;;;;;;;;;-0.10;99.90;;;;;;5030557;28;19927;-77
2022/12/11 11:21:57;;;;;;;;;;;-0.10;99.90;;;;;;5051452;28;19921;-76
2022/12/11 11:24:37;;;;;;;;;;;-0.10;99.90;;;;;;5050724;28;19931;-76
2022/12/11 11:27:10;;;;;;;;;;;-0.10;99.90;;;;;;5054790;28;19932;-76
2022/12/11 11:29:36;;;;;;;;;;;0.00;99.90;;;;;;5051332;28;20064;-77
2022/12/11 11:32:16;;;;;;;;;;;-0.10;99.90;;;;;;5034516;28;19974;-76
2022/12/11 11:34:42;;;;;;;;;;;-0.10;99.90;;;;;;5052637;28;20633;-77
2022/12/11 11:37:21;;;;;;;;;;;-0.10;99.90;;;;;;5047360;28;19921;-77
2022/12/11 11:39:47;;;;;;;;;;;-0.10;99.90;;;;;;5050798;28;19925;-77
2022/12/11 11:42:36;;;;;;;;;;;0.70;99.90;;;;;;5024175;28;19921;-75
2022/12/11 11:45:04;;;;;;;;;;;0.00;99.90;;;;;;5043046;28;20007;-77
2022/12/11 11:47:33;;;;;;;;;;;0.00;99.90;;;;;;5054993;28;19932;-76
2022/12/11 11:50:10;;;;;;;;;;;0.00;99.90;;;;;;5050954;28;19928;-76
2022/12/11 11:52:40;;;;;;;;;;;0.00;99.90;;;;;;5031798;28;20347;-76
2022/12/11 11:55:20;;;;;;;;;;;0.00;99.90;;;;;;5051626;28;19924;-76
2022/12/11 11:57:54;;;;;;;;;;;-0.10;99.90;;;;;;5049613;28;19960;-76
2022/12/11 12:00:23;;;;;;;;;;;-0.10;99.90;;;;;;5035979;28;20267;-76
2022/12/11 12:02:54;;;;;;;;;;;-0.10;99.90;;;;;;5040930;28;19967;-76
2022/12/11 12:05:26;;;;;;;;;;;-0.10;99.90;;;;;;5055697;28;19983;-76
2022/12/11 12:08:27;;;;;;;;;;;-0.10;99.90;;;;;;5053767;28;20328;-76
2022/12/11 12:10:55;;;;;;;;;;;-0.10;99.90;;;;;;4974718;28;20392;-76
2022/12/11 12:13:50;;;;;;;;;;;0.00;99.90;;;;;;5036878;28;19986;-76
2022/12/11 12:16:23;;;;;;;;;;;0.70;99.90;;;;;;5035732;28;19924;-74
2022/12/11 12:19:00;;;;;;;;;;;0.00;99.90;;;;;;5052138;28;20282;-77
2022/12/11 12:21:26;;;;;;;;;;;0.00;99.90;;;;;;5048864;28;20346;-76
2022/12/11 12:23:54;;;;;;;;;;;0.00;99.90;;;;;;5033780;28;19963;-76
2022/12/11 12:26:29;;;;;;;;;;;0.00;99.90;;;;;;5046846;28;19975;-76
2022/12/11 12:29:04;;;;;;;;;;;0.10;99.90;;;;;;5032844;28;19928;-76
2022/12/11 12:31:45;;;;;;;;;;;0.10;99.90;;;;;;5033692;28;19920;-76
2022/12/11 12:34:23;;;;;;;;;;;0.10;99.90;;;;;;5055032;28;20117;-76
2022/12/11 12:36:48;;;;;;;;;;;0.00;99.90;;;;;;5036627;28;19927;-76
2022/12/11 12:39:17;;;;;;;;;;;0.10;99.90;;;;;;5050783;28;19921;-76
2022/12/11 12:41:54;;;;;;;;;;;0.00;99.90;;;;;;5046529;28;19921;-78
2022/12/11 12:44:22;;;;;;;;;;;-0.10;99.90;;;;;;5049510;28;19925;-76
2022/12/11 12:46:47;;;;;;;;;;;0.00;99.90;;;;;;5046745;28;19960;-75
2022/12/11 12:49:28;;;;;;;;;;;0.00;99.90;;;;;;5053261;28;19959;-75
2022/12/11 12:51:54;;;;;;;;;;;0.00;99.90;;;;;;5050657;28;19924;-74
2022/12/11 12:54:20;;;;;;;;;;;0.00;99.90;;;;;;5033893;28;20313;-75
2022/12/11 12:56:46;;;;;;;;;;;0.60;99.90;;;;;;5033999;28;20326;-76
2022/12/11 12:59:22;;;;;;;;;;;0.00;99.90;;;;;;5050846;28;19928;-75
2022/12/11 13:01:51;;;;;;;;;;;0.00;99.90;;;;;;5049686;28;19921;-74
2022/12/11 13:04:35;;;;;;;;;;;0.00;99.90;;;;;;5049010;28;20055;-74
2022/12/11 13:07:19;;;;;;;;;;;0.00;99.90;;;;;;5033946;28;19920;-74
2022/12/11 13:10:03;;;;;;;;;;;-0.10;99.90;;;;;;5050893;28;20002;-75
2022/12/11 13:12:38;;;;;;;;;;;0.00;99.90;;;;;;5033508;28;20382;-74
2022/12/11 13:15:04;;;;;;;;;;;0.00;99.90;;;;;;5031718;28;20019;-74
2022/12/11 13:17:35;;;;;;;;;;;0.00;99.90;;;;;;5050018;28;20008;-74
2022/12/11 13:20:09;;;;;;;;;;;0.00;99.90;;;;;;5053111;28;19948;-74
2022/12/11 13:22:45;;;;;;;;;;;0.10;99.90;;;;;;5049812;28;19921;-74
2022/12/11 13:25:28;;;;;;;;;;;0.10;99.90;;;;;;5049892;28;19920;-74
2022/12/11 13:28:03;;;;;;;;;;;0.10;99.90;;;;;;5056029;28;20414;-74
2022/12/11 13:30:29;;;;;;;;;;;0.10;99.90;;;;;;5049155;28;19928;-74
2022/12/11 13:33:02;;;;;;;;;;;0.10;99.90;;;;;;5034757;28;19921;-74
2022/12/11 13:35:29;;;;;;;;;;;0.10;99.90;;;;;;5049192;28;19933;-74
2022/12/11 13:37:57;;;;;;;;;;;0.10;99.90;;;;;;5049744;28;19921;-75
2022/12/11 13:40:24;;;;;;;;;;;0.10;99.90;;;;;;5046364;28;19921;-74
2022/12/11 13:42:58;;;;;;;;;;;0.10;99.90;;;;;;5051249;28;19921;-74
2022/12/11 13:45:28;;;;;;;;;;;0.10;99.90;;;;;;5049704;28;19940;-74
2022/12/11 13:47:55;;;;;;;;;;;0.10;99.90;;;;;;5054706;28;20007;-74
2022/12/11 13:50:24;;;;;;;;;;;0.10;99.90;;;;;;5045968;28;19978;-74
2022/12/11 13:52:53;;;;;;;;;;;0.10;99.90;;;;;;5050744;28;19964;-74
2022/12/11 13:55:23;;;;;;;;;;;0.10;99.90;;;;;;5045880;28;20382;-74
2022/12/11 13:57:49;;;;;;;;;;;0.10;99.90;;;;;;5042819;28;19928;-75
2022/12/11 14:00:22;;;;;;;;;;;0.10;99.90;;;;;;5033168;28;19921;-75
2022/12/11 14:02:49;;;;;;;;;;;0.10;99.90;;;;;;5050625;28;19925;-76
2022/12/11 14:05:15;;;;;;;;;;;0.00;99.90;;;;;;5040984;28;20399;-81
2022/12/11 14:07:42;;;;;;;;;;;0.00;99.90;;;;;;5036967;28;19921;-81
2022/12/11 14:10:13;;;;;;;;;;;0.10;99.90;;;;;;5042301;28;20443;-80
2022/12/11 14:12:42;;;;;;;;;;;0.00;99.90;;;;;;5049011;28;19926;-81
2022/12/11 14:15:12;;;;;;;;;;;0.10;99.90;;;;;;5029945;28;19933;-79
2022/12/11 14:17:39;;;;;;;;;;;0.60;99.90;;;;;;5050759;28;19970;-83
2022/12/11 14:20:06;;;;;;;;;;;0.00;99.90;;;;;;5036453;28;19991;-85
2022/12/11 14:22:32;;;;;;;;;;;0.00;99.90;;;;;;5018569;28;19928;-82
2022/12/11 14:24:58;;;;;;;;;;;0.00;99.90;;;;;;5037482;28;19970;-79
2022/12/11 14:27:25;;;;;;;;;;;0.00;99.90;;;;;;5042243;28;19925;-79
2022/12/11 14:29:51;;;;;;;;;;;0.00;99.90;;;;;;5032919;28;20011;-84
2022/12/11 14:32:26;;;;;;;;;;;-0.10;99.90;;;;;;5043317;28;20014;-80
2022/12/11 14:34:52;;;;;;;;;;;0.00;99.90;;;;;;5032562;28;20433;-78
2022/12/11 14:37:19;;;;;;;;;;;0.10;99.90;;;;;;5038570;28;19960;-78
2022/12/11 14:39:49;;;;;;;;;;;0.30;99.90;;;;;;5035078;28;19975;-78
2022/12/11 14:42:18;;;;;;;;;;;0.00;99.90;;;;;;5050764;28;19960;-77